.
WxDataArchive / Data Records for 2015-07-04
2015-07-03 July 2015 2015-07-05

Data Records for Saturday, 04 July 2015

Time	Temp	Chill	HIndex	Humid	Dewpt	 Wind 	HiWind	WindDir	Rain 	Barom
-----	----	-----	------	-----	-----	------	------	-------	-----	-----
00:00	62.9	62.9	62.9	82	57.3	0	0	---	0.00	29.898 
00:05	62.6	62.6	62.6	83	57.4	0	0	---	0.00	29.898 
00:10	62.4	62.4	62.4	83	57.2	0	0	---	0.00	29.898 
00:15	62.1	62.1	62.1	84	57.2	0	0	---	0.00	29.899 
00:20	62.0	62.0	62.0	84	57.1	0	0	---	0.00	29.899 
00:25	61.8	61.8	61.8	84	56.9	0	0	---	0.00	29.899 
00:30	61.5	61.5	61.5	85	56.9	0	0	---	0.00	29.900 
00:35	61.3	61.3	61.3	85	56.7	0	0	---	0.00	29.900 
00:40	61.2	61.2	61.2	86	57.0	0	0	---	0.00	29.900 
00:45	61.0	61.0	61.0	86	56.8	0	0	---	0.00	29.902 
00:50	60.7	60.7	60.7	86	56.5	0	0	---	0.00	29.902 
00:55	60.5	60.5	60.5	87	56.6	0	0	---	0.00	29.902 
01:00	60.4	60.4	60.4	87	56.5	0	0	---	0.00	29.904 
01:05	60.2	60.2	60.2	87	56.3	0	0	---	0.00	29.904 
01:10	60.1	60.1	60.1	87	56.2	0	0	---	0.00	29.904 
01:15	59.9	59.9	59.9	88	56.3	0	0	---	0.00	29.906 
01:20	59.8	59.8	59.8	88	56.2	0	0	---	0.00	29.906 
01:25	59.6	59.6	59.6	88	56.0	0	0	---	0.00	29.906 
01:30	59.5	59.5	59.5	88	55.9	0	0	---	0.00	29.909 
01:35	59.3	59.3	59.3	89	56.1	0	0	---	0.00	29.909 
01:40	59.3	59.3	59.3	89	56.1	0	0	---	0.00	29.909 
01:45	59.2	59.2	59.2	89	56.0	0	0	---	0.00	29.904 
01:50	59.0	59.0	59.0	89	55.8	0	0	---	0.00	29.904 
01:55	58.7	58.7	58.7	89	55.5	0	0	---	0.00	29.904 
02:00	58.6	58.6	58.6	90	55.7	0	0	---	0.00	29.903 
02:05	58.4	58.4	58.4	90	55.5	0	0	---	0.00	29.903 
02:10	58.3	58.3	58.3	90	55.4	0	0	---	0.00	29.903 
02:15	58.3	58.3	58.3	90	55.4	0	0	---	0.00	29.905 
02:20	58.1	58.1	58.1	91	55.5	0	0	---	0.00	29.905 
02:25	58.1	58.1	58.1	91	55.5	0	0	---	0.00	29.905 
02:30	58.0	58.0	58.0	91	55.4	0	0	---	0.00	29.903 
02:35	57.8	57.8	57.8	91	55.2	0	0	---	0.00	29.903 
02:40	57.8	57.8	57.8	91	55.2	0	0	---	0.00	29.903 
02:45	57.6	57.6	57.6	91	55.0	0	0	---	0.00	29.905 
02:50	57.6	57.6	57.6	92	55.3	0	0	---	0.00	29.905 
02:55	57.5	57.5	57.5	92	55.2	0	0	---	0.00	29.905 
03:00	57.3	57.3	57.3	92	55.0	0	0	---	0.00	29.902 
03:05	57.3	57.3	57.3	92	55.0	0	0	---	0.00	29.902 
03:10	57.2	57.2	57.2	92	54.9	0	0	---	0.00	29.902 
03:15	57.0	57.0	57.0	92	54.7	0	0	---	0.00	29.904 
03:20	57.0	57.0	57.0	92	54.7	0	0	---	0.00	29.904 
03:25	57.0	57.0	57.0	92	54.7	0	0	---	0.00	29.904 
03:30	56.9	56.9	56.9	92	54.6	0	0	---	0.00	29.902 
03:35	56.9	56.9	56.9	92	54.6	0	0	---	0.00	29.902 
03:40	56.7	56.7	56.7	92	54.4	0	0	---	0.00	29.902 
03:45	56.7	56.7	56.7	92	54.4	0	0	---	0.00	29.900 
03:50	56.6	56.6	56.6	92	54.3	0	0	---	0.00	29.900 
03:55	56.6	56.6	56.6	93	54.6	0	0	---	0.00	29.900 
04:00	56.5	56.5	56.5	93	54.5	0	0	---	0.00	29.900 
04:05	56.5	56.5	56.5	93	54.5	0	0	---	0.00	29.900 
04:10	56.5	56.5	56.5	93	54.5	0	0	---	0.00	29.900 
04:15	56.5	56.5	56.5	93	54.5	0	0	---	0.00	29.900 
04:20	56.5	56.5	56.5	93	54.5	0	0	---	0.00	29.900 
04:25	56.5	56.5	56.5	93	54.5	0	0	---	0.00	29.900 
04:30	56.3	56.3	56.3	93	54.3	0	0	---	0.00	29.900 
04:35	56.3	56.3	56.3	93	54.3	0	0	---	0.00	29.900 
04:40	56.3	56.3	56.3	93	54.3	0	0	---	0.00	29.900 
04:45	56.2	56.2	56.2	93	54.2	0	0	---	0.00	29.898 
04:50	56.2	56.2	56.2	93	54.2	0	0	---	0.00	29.898 
04:55	56.0	56.0	56.0	93	54.0	0	0	---	0.00	29.898 
05:00	56.0	56.0	56.0	93	54.0	0	0	---	0.00	29.897 
05:05	55.9	55.9	55.9	93	53.9	0	0	---	0.00	29.897 
05:10	55.7	55.7	55.7	93	53.7	0	0	---	0.00	29.897 
05:15	55.7	55.7	55.7	94	54.0	0	0	---	0.00	29.898 
05:20	55.7	55.7	55.7	94	54.0	0	0	---	0.00	29.898 
05:25	55.6	55.6	55.6	94	53.9	0	0	---	0.00	29.898 
05:30	55.6	55.6	55.6	94	53.9	0	0	---	0.00	29.903 
05:35	55.4	55.4	55.4	94	53.7	0	0	---	0.00	29.903 
05:40	55.4	55.4	55.4	94	53.7	0	0	---	0.00	29.903 
05:45	55.4	55.4	55.4	94	53.7	0	0	---	0.00	29.910 
05:50	55.3	55.3	55.3	94	53.6	0	0	---	0.00	29.910 
05:55	55.3	55.3	55.3	94	53.6	0	0	---	0.00	29.910 
06:00	55.1	55.1	55.1	94	53.4	0	0	---	0.00	29.916 
06:05	55.1	55.1	55.1	94	53.4	0	0	---	0.00	29.916 
06:10	55.1	55.1	55.1	94	53.4	0	0	---	0.00	29.916 
06:15	55.0	55.0	55.0	94	53.3	0	0	---	0.00	29.918 
06:20	55.0	55.0	55.0	94	53.3	0	0	---	0.00	29.918 
06:25	55.0	55.0	55.0	94	53.3	0	0	---	0.00	29.918 
06:30	54.8	54.8	54.8	94	53.1	0	0	---	0.00	29.921 
06:35	54.8	54.8	54.8	94	53.1	0	0	---	0.00	29.921 
06:40	54.8	54.8	54.8	94	53.1	0	0	---	0.00	29.921 
06:45	54.8	54.8	54.8	94	53.1	0	0	---	0.00	29.925 
06:50	55.0	55.0	55.0	94	53.3	0	0	---	0.00	29.925 
06:55	55.0	55.0	55.0	94	53.3	0	0	---	0.00	29.925 
07:00	55.1	55.1	55.1	94	53.4	0	0	---	0.00	29.930 
07:05	55.3	55.3	55.3	95	53.9	0	0	---	0.00	29.930 
07:10	55.4	55.4	55.4	95	54.0	0	0	---	0.00	29.930 
07:15	55.6	55.6	55.6	95	54.2	0	0	---	0.00	29.933 
07:20	55.7	55.7	55.7	95	54.3	0	0	---	0.00	29.933 
07:25	56.0	56.0	56.0	95	54.6	0	0	---	0.00	29.933 
07:30	56.3	56.3	56.3	95	54.9	0	0	---	0.00	29.935 
07:35	56.6	56.6	56.6	95	55.2	0	0	---	0.00	29.935 
07:40	57.0	57.0	57.0	95	55.6	0	0	---	0.00	29.935 
07:45	57.5	57.5	57.5	95	56.1	0	0	---	0.00	29.943 
07:50	57.8	57.8	57.8	95	56.4	0	0	---	0.00	29.943 
07:55	58.3	58.3	58.3	95	56.9	0	0	---	0.00	29.943 
08:00	58.7	58.7	58.7	95	57.3	0	0	---	0.00	29.945 
08:05	59.3	59.3	59.3	95	57.9	0	0	---	0.00	29.945 
08:10	59.9	59.9	59.9	95	58.5	0	0	---	0.00	29.945 
08:15	60.4	60.4	60.4	95	59.0	0	0	---	0.00	29.949 
08:20	61.3	61.3	61.3	94	59.6	0	0	---	0.00	29.949 
08:25	62.0	62.0	62.0	94	60.2	0	0	---	0.00	29.949 
08:30	62.7	62.7	62.7	93	60.6	0	0	---	0.00	29.950 
08:35	63.4	63.4	63.4	92	61.0	0	0	---	0.00	29.950 
08:40	63.4	63.4	63.4	90	60.4	0	0	---	0.00	29.950 
08:45	63.4	63.4	63.4	89	60.1	0	0	---	0.00	29.958 
08:50	63.5	63.5	63.5	88	59.9	0	0	---	0.00	29.958 
08:55	64.0	64.0	64.0	87	60.0	0	0	---	0.00	29.958 
09:00	64.5	64.5	64.5	84	59.6	0	0	---	0.00	29.959 
09:05	65.0	65.0	65.0	82	59.4	0	0	---	0.00	29.959 
09:10	65.2	65.2	65.2	80	58.9	0	0	---	0.00	29.959 
09:15	65.8	65.8	65.8	79	59.1	0	0	---	0.00	29.962 
09:20	66.6	66.6	66.6	77	59.2	0	0	---	0.00	29.962 
09:25	67.6	67.6	67.6	74	59.0	0	0	---	0.00	29.962 
09:30	68.6	68.6	68.6	73	59.6	0	0	---	0.00	29.960 
09:35	69.4	69.4	69.4	70	59.2	0	0	---	0.00	29.960 
09:40	70.1	70.1	70.1	68	59.0	0	0	---	0.00	29.960 
09:45	70.4	70.4	70.4	66	58.5	0	0	---	0.00	29.960 
09:50	70.8	70.8	70.8	67	59.3	0	0	---	0.00	29.960 
09:55	71.3	71.3	71.3	67	59.8	0	0	---	0.00	29.960 
10:00	71.6	71.6	71.6	67	60.0	0	0	---	0.00	29.958 
10:05	71.6	71.6	71.6	65	59.2	0	0	---	0.00	29.958 
10:10	71.1	71.1	71.1	65	58.7	0	0	---	0.00	29.958 
10:15	70.9	70.9	70.9	66	59.0	0	0	---	0.00	29.964 
10:20	70.9	70.9	70.9	65	58.5	0	0	---	0.00	29.964 
10:25	71.5	71.5	71.5	65	59.1	0	0	---	0.00	29.964 
10:30	72.0	72.0	72.0	64	59.1	0	0	---	0.00	29.961 
10:35	72.1	72.1	72.1	63	58.8	0	0	---	0.00	29.961 
10:40	72.1	72.1	72.1	62	58.3	0	0	---	0.00	29.961 
10:45	72.1	72.1	72.1	61	57.9	0	0	---	0.00	29.962 
10:50	72.1	72.1	72.1	60	57.4	0	0	---	0.00	29.962 
10:55	72.5	72.5	72.5	59	57.3	0	0	---	0.00	29.962 
11:00	73.2	73.2	73.2	59	58.0	0	0	---	0.00	29.962 
11:05	73.9	73.9	73.9	60	59.1	0	0	---	0.00	29.962 
11:10	73.7	73.7	73.7	54	56.0	0	3	292	0.00	29.962 
11:15	74.0	74.0	74.0	59	58.7	0	0	---	0.00	29.961 
11:20	74.4	74.4	74.4	56	57.7	0	1	292	0.00	29.961 
11:25	74.2	74.2	74.2	54	56.5	1	2	292	0.00	29.961 
11:30	74.4	74.4	74.4	54	56.7	0	1	292	0.00	29.961 
11:35	74.7	74.7	74.7	58	58.9	0	1	292	0.00	29.961 
11:40	74.9	74.9	74.9	54	57.1	0	1	292	0.00	29.961 
11:45	75.1	75.1	77.6	54	57.3	0	1	292	0.00	29.964 
11:50	75.8	75.8	78.0	53	57.4	0	1	292	0.00	29.964 
11:55	76.0	76.0	78.1	51	56.5	0	1	292	0.00	29.964 
12:00	76.3	76.3	78.3	54	58.4	0	2	292	0.00	29.963 
12:05	76.1	76.1	78.1	53	57.7	0	3	292	0.00	29.963 
12:10	76.3	76.3	78.2	52	57.4	0	2	292	0.00	29.963 
12:15	76.5	76.5	78.4	52	57.5	0	1	292	0.00	29.970 
12:20	76.7	76.7	78.5	53	58.3	0	2	292	0.00	29.970 
12:25	76.7	76.7	78.4	49	56.1	0	2	292	0.00	29.970 
12:30	76.5	76.5	78.3	50	56.5	0	2	292	0.00	29.973 
12:35	76.8	76.8	78.4	48	55.6	1	2	292	0.00	29.973 
12:40	77.2	77.2	78.6	47	55.4	0	2	292	0.00	29.973 
12:45	77.4	77.4	78.9	52	58.4	1	2	292	0.00	29.973 
12:50	77.4	77.4	78.8	49	56.7	0	2	292	0.00	29.973 
12:55	77.2	77.2	78.7	50	57.1	0	2	292	0.00	29.973 
13:00	76.7	76.7	78.5	52	57.7	0	3	292	0.00	29.972 
13:05	76.7	76.7	78.5	54	58.8	0	3	292	0.00	29.972 
13:10	77.0	77.0	78.6	49	56.4	0	2	292	0.00	29.972 
13:15	77.0	77.0	78.5	48	55.8	0	2	292	0.00	29.973 
13:20	77.2	77.2	78.7	49	56.5	1	2	292	0.00	29.973 
13:25	77.0	77.0	78.6	50	56.9	1	2	292	0.00	29.973 
13:30	77.0	77.0	78.5	47	55.2	1	3	292	0.00	29.974 
13:35	76.7	76.7	78.4	47	54.9	1	3	112	0.00	29.974 
13:40	76.8	76.8	78.5	49	56.2	1	2	112	0.00	29.974 
13:45	76.8	76.8	78.4	48	55.6	1	3	112	0.00	29.975 
13:50	77.0	77.0	78.6	50	56.9	0	1	112	0.00	29.975 
13:55	77.4	77.4	78.7	47	55.6	1	5	270	0.00	29.975 
14:00	77.4	77.4	78.7	46	55.0	0	3	270	0.00	29.974 
14:05	77.6	77.6	78.8	45	54.6	0	2	270	0.00	29.974 
14:10	77.7	77.7	78.9	48	56.4	0	2	270	0.00	29.974 
14:15	78.1	78.1	79.2	47	56.2	1	3	270	0.00	29.975 
14:20	78.5	78.5	79.5	48	57.2	0	1	270	0.00	29.975 
14:25	78.8	78.8	79.6	46	56.2	0	1	270	0.00	29.975 
14:30	79.2	79.2	79.9	47	57.2	0	2	270	0.00	29.972 
14:35	79.0	79.0	79.6	44	55.2	1	3	315	0.00	29.972 
14:40	79.0	79.0	79.7	46	56.4	0	2	315	0.00	29.972 
14:45	79.2	79.2	79.5	41	53.4	0	2	315	0.00	29.973 
14:50	79.0	79.0	79.6	44	55.2	0	1	315	0.00	29.973 
14:55	78.8	78.8	79.4	44	55.0	0	3	315	0.00	29.973 
15:00	78.8	78.8	79.4	43	54.4	0	1	315	0.00	29.968 
15:05	79.2	79.2	79.8	45	56.0	0	2	315	0.00	29.968 
15:10	79.4	79.4	79.9	45	56.2	0	2	315	0.00	29.968 
15:15	79.8	79.8	80.4	47	57.8	0	1	315	0.00	29.965 
15:20	80.1	80.1	80.4	45	56.8	0	1	315	0.00	29.965 
15:25	80.3	80.3	80.5	44	56.4	0	3	315	0.00	29.965 
15:30	79.9	79.9	80.2	44	56.0	1	3	315	0.00	29.966 
15:35	79.8	79.8	80.3	46	57.2	0	2	315	0.00	29.966 
15:40	79.4	79.4	80.1	47	57.4	0	1	338	0.00	29.966 
15:45	78.8	78.8	79.6	46	56.2	0	1	338	0.00	29.968 
15:50	78.8	78.8	79.6	47	56.8	0	2	338	0.00	29.968 
15:55	79.0	79.0	79.7	46	56.4	1	3	338	0.00	29.968 
16:00	78.8	78.8	79.4	44	55.0	2	3	315	0.00	29.969 
16:05	78.8	78.8	79.6	46	56.2	0	3	315	0.00	29.969 
16:10	78.8	78.8	79.6	46	56.2	1	4	315	0.00	29.969 
16:15	78.8	78.8	79.5	45	55.6	1	3	315	0.00	29.965 
16:20	79.2	79.2	79.7	44	55.4	1	3	292	0.00	29.965 
16:25	79.4	79.4	79.9	45	56.2	0	2	292	0.00	29.965 
16:30	79.6	79.6	80.0	44	55.7	1	4	292	0.00	29.964 
16:35	79.2	79.2	79.5	42	54.1	1	4	292	0.00	29.964 
16:40	79.0	79.0	79.4	42	53.9	1	3	292	0.00	29.964 
16:45	78.8	78.8	79.4	43	54.4	0	3	292	0.00	29.968 
16:50	78.8	78.8	79.2	40	52.4	1	4	292	0.00	29.968 
16:55	79.0	79.0	79.4	42	53.9	0	2	292	0.00	29.968 
17:00	79.0	79.0	79.2	39	51.9	1	3	292	0.00	29.971 
17:05	78.8	78.8	79.1	39	51.7	0	4	315	0.00	29.971 
17:10	78.8	78.8	79.2	40	52.4	1	4	315	0.00	29.971 
17:15	78.6	78.6	79.0	40	52.2	0	1	315	0.00	29.971 
17:20	78.6	78.6	79.0	39	51.5	0	3	315	0.00	29.971 
17:25	78.8	78.8	79.0	38	51.0	1	2	315	0.00	29.971 
17:30	79.0	79.0	79.3	40	52.6	1	4	315	0.00	29.968 
17:35	78.8	78.8	79.2	40	52.4	1	3	248	0.00	29.968 
17:40	78.8	78.8	79.2	40	52.4	1	3	248	0.00	29.968 
17:45	78.6	78.6	79.0	39	51.5	0	1	248	0.00	29.968 
17:50	78.6	78.6	79.2	43	54.2	0	2	248	0.00	29.968 
17:55	78.5	78.5	79.1	41	52.8	0	2	248	0.00	29.968 
18:00	78.3	78.3	79.0	42	53.3	0	2	248	0.00	29.966 
18:05	78.3	78.3	79.1	44	54.6	0	1	248	0.00	29.966 
18:10	78.3	78.3	79.1	44	54.6	0	1	248	0.00	29.966 
18:15	78.3	78.3	79.2	45	55.2	0	1	248	0.00	29.964 
18:20	78.3	78.3	79.1	44	54.6	0	3	248	0.00	29.964 
18:25	78.1	78.1	79.0	45	55.0	0	2	248	0.00	29.964 
18:30	77.9	77.9	78.9	44	54.2	0	1	248	0.00	29.963 
18:35	77.9	77.9	79.0	46	55.4	0	1	248	0.00	29.963 
18:40	77.7	77.7	78.9	46	55.2	0	1	248	0.00	29.963 
18:45	77.6	77.6	78.7	44	53.9	0	2	248	0.00	29.961 
18:50	77.6	77.6	78.8	45	54.6	0	1	248	0.00	29.961 
18:55	77.4	77.4	78.7	46	55.0	0	1	248	0.00	29.961 
19:00	77.4	77.4	78.7	46	55.0	0	1	248	0.00	29.956 
19:05	77.0	77.0	78.5	47	55.2	0	1	248	0.00	29.956 
19:10	76.8	76.8	78.4	48	55.6	0	2	248	0.00	29.956 
19:15	76.7	76.7	78.4	48	55.5	0	1	248	0.00	29.954 
19:20	76.7	76.7	78.4	47	54.9	0	1	248	0.00	29.954 
19:25	76.5	76.5	78.3	48	55.3	0	1	68	0.00	29.954 
19:30	76.3	76.3	78.2	48	55.1	0	2	68	0.00	29.954 
19:35	76.3	76.3	78.2	49	55.7	0	0	---	0.00	29.954 
19:40	76.1	76.1	78.1	49	55.5	0	1	68	0.00	29.954 
19:45	76.0	76.0	78.1	50	56.0	0	0	---	0.00	29.954 
19:50	76.0	76.0	78.1	50	56.0	0	1	68	0.00	29.954 
19:55	76.0	76.0	78.1	51	56.5	0	0	---	0.00	29.954 
20:00	75.8	75.8	78.0	51	56.4	0	0	---	0.00	29.960 
20:05	75.6	75.6	77.9	51	56.2	0	0	---	0.00	29.960 
20:10	75.6	75.6	77.9	52	56.7	0	0	---	0.00	29.960 
20:15	75.4	75.4	77.8	52	56.5	0	0	---	0.00	29.955 
20:20	75.4	75.4	77.8	53	57.1	0	0	---	0.00	29.955 
20:25	75.3	75.3	77.7	52	56.4	0	0	---	0.00	29.955 
20:30	75.1	75.1	77.6	53	56.8	0	0	---	0.00	29.959 
20:35	74.7	74.7	74.7	55	57.4	0	0	---	0.00	29.959 
20:40	74.6	74.6	74.6	56	57.8	0	0	---	0.00	29.959 
20:45	74.0	74.0	74.0	57	57.8	0	0	---	0.00	29.966 
20:50	73.7	73.7	73.7	58	58.0	0	0	---	0.00	29.966 
20:55	73.2	73.2	73.2	58	57.5	0	0	---	0.00	29.966 
21:00	72.8	72.8	72.8	58	57.1	0	0	---	0.00	29.970 
21:05	72.3	72.3	72.3	59	57.2	0	0	---	0.00	29.970 
21:10	71.8	71.8	71.8	60	57.2	0	0	---	0.00	29.970 
21:15	71.5	71.5	71.5	62	57.8	0	0	---	0.00	29.967 
21:20	71.1	71.1	71.1	63	57.9	0	0	---	0.00	29.967 
21:25	70.6	70.6	70.6	65	58.2	0	0	---	0.00	29.967 
21:30	70.3	70.3	70.3	66	58.4	0	0	---	0.00	29.970 
21:35	69.9	69.9	69.9	67	58.4	0	0	---	0.00	29.970 
21:40	69.6	69.6	69.6	68	58.6	0	0	---	0.00	29.970 
21:45	69.3	69.3	69.3	69	58.7	0	0	---	0.00	29.976 
21:50	68.9	68.9	68.9	70	58.7	0	0	---	0.00	29.976 
21:55	68.6	68.6	68.6	72	59.2	0	0	---	0.00	29.976 
22:00	68.3	68.3	68.3	73	59.3	0	0	---	0.00	29.981 
22:05	67.9	67.9	67.9	74	59.3	0	0	---	0.00	29.981 
22:10	67.6	67.6	67.6	75	59.4	0	0	---	0.00	29.981 
22:15	67.4	67.4	67.4	76	59.6	0	0	---	0.00	29.987 
22:20	67.1	67.1	67.1	77	59.6	0	0	---	0.00	29.987 
22:25	66.9	66.9	66.9	77	59.4	0	0	---	0.00	29.987 
22:30	66.6	66.6	66.6	78	59.5	0	0	---	0.00	29.991 
22:35	66.4	66.4	66.4	78	59.3	0	0	---	0.00	29.991 
22:40	66.3	66.3	66.3	78	59.2	0	0	---	0.00	29.991 
22:45	66.1	66.1	66.1	79	59.4	0	0	---	0.00	29.996 
22:50	66.0	66.0	66.0	79	59.3	0	0	---	0.00	29.996 
22:55	65.6	65.6	65.6	79	58.9	0	0	---	0.00	29.996 
23:00	65.5	65.5	65.5	80	59.2	0	0	---	0.00	30.003 
23:05	65.3	65.3	65.3	80	59.0	0	0	---	0.00	30.003 
23:10	65.2	65.2	65.2	81	59.2	0	0	---	0.00	30.003 
23:15	65.0	65.0	65.0	81	59.0	0	0	---	0.00	30.002 
23:20	64.8	64.8	64.8	82	59.2	0	0	---	0.00	30.002 
23:25	64.7	64.7	64.7	82	59.1	0	0	---	0.00	30.002 
23:30	64.5	64.5	64.5	83	59.2	0	0	---	0.00	30.005 
23:35	64.3	64.3	64.3	83	59.0	0	0	---	0.00	30.005 
23:40	64.2	64.2	64.2	84	59.3	0	0	---	0.00	30.005 
23:45	64.0	64.0	64.0	84	59.1	0	0	---	0.00	30.013 
23:50	63.9	63.9	63.9	84	59.0	0	0	---	0.00	30.013 
23:55	63.7	63.7	63.7	84	58.8	0	0	---	0.00	30.013 

CoCoRaHS
IN-AL-39
A2 Web Hosting
Creative Commons License
GoDaddy
search engine by freefind advanced

loaded 2018-11-19 10:20:54 • last modified 2010-11-18 10:43:29
Privacy PolicyDisclaimer
• wx.awcolley.com is powered by PmWiki v.2002016 •
• all content (unless otherwise noted) © 2018 A W Colley